Terminal Aerodrome Forecast
Issued by NWS Cleveland, OH

Home | Current Version | Previous Version | Graphics & Text | Print | Product List | Glossary On
Versions: 1 2 3 4 5 6 7 8 9 10 11 12 13 14 15 16 17 18 19 20 21 22 23 24 25 26 27 28 29 30 31 32 33 34
000
FTUS41 KCLE 200200 AAB
TAFCLE
TAF AMD
KCLE 200258Z 2003/2106 15004KT P6SM BKN070
      TEMPO 2004/2006 4SM -SHRA
     FM200700 18004KT 5SM BR BKN050
     FM201300 23006KT P6SM BKN100
     FM201800 25010KT P6SM BKN040=

USA.gov is the U.S. government's official web portal to all federal, state and local government web resources and services.